createdAt,value
2023-03-06T00:00:03.962Z,0.61
2023-03-06T00:01:01.733Z,0.62
2023-03-06T00:02:02.200Z,0.63
2023-03-06T00:03:01.735Z,0.63
2023-03-06T00:04:02.294Z,0.63
2023-03-06T00:05:01.643Z,0.64
2023-03-06T00:06:03.896Z,0.64
2023-03-06T00:07:01.635Z,0.63
2023-03-06T00:08:02.140Z,0.63
2023-03-06T00:09:01.608Z,0.63
2023-03-06T00:10:03.715Z,0.63
2023-03-06T00:11:01.485Z,0.63
2023-03-06T00:12:01.958Z,0.63
2023-03-06T00:13:01.509Z,0.62
2023-03-06T00:14:01.995Z,0.62
2023-03-06T00:15:01.403Z,0.61
2023-03-06T00:16:01.949Z,0.61
2023-03-06T00:17:01.438Z,0.61
2023-03-06T00:18:03.566Z,0.61
2023-03-06T00:19:03.006Z,0.61
2023-03-06T00:20:01.800Z,0.62
2023-03-06T00:21:03.962Z,0.63
2023-03-06T00:22:03.412Z,0.63
2023-03-06T00:23:03.877Z,0.63
2023-03-06T00:24:01.725Z,0.63
2023-03-06T00:25:03.884Z,0.62
2023-03-06T00:26:03.324Z,0.62
2023-03-06T00:27:02.134Z,0.62
2023-03-06T00:28:01.634Z,0.63
2023-03-06T00:29:02.144Z,0.63
2023-03-06T00:30:01.582Z,0.64
2023-03-06T00:31:03.721Z,0.65
2023-03-06T00:32:01.492Z,0.64
2023-03-06T00:33:01.957Z,0.64
2023-03-06T00:34:01.495Z,0.63
2023-03-06T00:35:02.019Z,0.63
2023-03-06T00:36:01.398Z,0.61
2023-03-06T00:37:01.868Z,0.6
2023-03-06T00:38:03.078Z,0.59
2023-03-06T00:39:03.555Z,0.59
2023-03-06T00:40:01.347Z,0.58
2023-03-06T00:41:01.801Z,0.58
2023-03-06T00:43:03.482Z,0.55
2023-03-06T00:44:02.270Z,0.57
2023-03-06T00:45:01.736Z,0.57
2023-03-06T00:46:02.264Z,0.58
2023-03-06T00:47:01.702Z,0.59
2023-03-06T00:48:02.197Z,0.59
2023-03-06T00:49:03.315Z,0.58
2023-03-06T00:50:02.113Z,0.58
2023-03-06T00:51:01.661Z,0.57
2023-03-06T00:52:02.109Z,0.57
2023-03-06T00:53:01.558Z,0.57
2023-03-06T00:54:02.038Z,0.55
2023-03-06T00:55:01.571Z,0.55
2023-03-06T00:56:02.061Z,0.55
2023-03-06T00:57:01.508Z,0.54
2023-03-06T00:58:01.945Z,0.54
2023-03-06T00:59:01.479Z,0.54
2023-03-06T01:00:01.959Z,0.55
2023-03-06T01:01:01.417Z,0.57
2023-03-06T01:02:01.944Z,0.57
2023-03-06T01:03:01.402Z,0.57
2023-03-06T01:04:01.865Z,0.55
2023-03-06T01:05:02.998Z,0.55
2023-03-06T01:06:01.797Z,0.57
2023-03-06T01:07:02.293Z,0.58
2023-03-06T01:08:01.789Z,0.58
2023-03-06T01:09:02.271Z,0.58
2023-03-06T01:10:01.717Z,0.58
2023-03-06T01:11:02.184Z,0.58
2023-03-06T01:12:01.767Z,0.58
2023-03-06T01:13:03.875Z,0.58
2023-03-06T01:14:03.313Z,0.58
2023-03-06T01:15:03.784Z,0.59
2023-03-06T01:16:02.643Z,0.59
2023-03-06T01:18:03.597Z,0.59
2023-03-06T01:19:02.279Z,0.6
2023-03-06T01:20:01.723Z,0.6
2023-03-06T01:21:02.210Z,0.59
2023-03-06T01:22:01.717Z,0.59
2023-03-06T01:23:02.201Z,0.59
2023-03-06T01:24:03.322Z,0.58
2023-03-06T01:25:02.120Z,0.58
2023-03-06T01:26:01.639Z,0.58
2023-03-06T01:27:02.120Z,0.59
2023-03-06T01:28:01.578Z,0.58
2023-03-06T01:29:02.074Z,0.58
2023-03-06T01:30:01.555Z,0.59
2023-03-06T01:31:02.050Z,0.59
2023-03-06T01:32:01.626Z,0.6
2023-03-06T01:33:01.982Z,0.6
2023-03-06T01:34:01.487Z,0.61
2023-03-06T01:35:01.970Z,0.61
2023-03-06T01:36:01.398Z,0.62
2023-03-06T01:37:03.555Z,0.61
2023-03-06T01:38:01.393Z,0.61
2023-03-06T01:39:01.886Z,0.6
2023-03-06T01:40:01.319Z,0.6
2023-03-06T01:41:01.818Z,0.59
2023-03-06T01:43:01.801Z,0.59
2023-03-06T01:44:02.275Z,0.58
2023-03-06T01:45:01.722Z,0.58
2023-03-06T01:46:03.921Z,0.58
2023-03-06T01:47:01.718Z,0.57
2023-03-06T01:48:03.874Z,0.58
2023-03-06T01:49:01.720Z,0.58
2023-03-06T01:50:03.888Z,0.58
2023-03-06T01:51:03.323Z,0.58
2023-03-06T01:52:02.167Z,0.57
2023-03-06T01:53:01.653Z,0.55
2023-03-06T01:54:03.796Z,0.58
2023-03-06T01:55:01.558Z,0.59
2023-03-06T01:56:02.037Z,0.59
2023-03-06T01:57:01.474Z,0.59
2023-03-06T01:58:02.030Z,0.59
2023-03-06T01:59:01.470Z,0.58
2023-03-06T02:00:01.965Z,0.57
2023-03-06T02:01:01.507Z,0.57
2023-03-06T02:02:02.054Z,0.57
2023-03-06T02:03:01.424Z,0.57
2023-03-06T02:04:01.967Z,0.57
2023-03-06T02:05:01.396Z,0.57
2023-03-06T02:06:01.892Z,0.55
2023-03-06T02:07:03.019Z,0.54
2023-03-06T02:08:01.801Z,0.53
2023-03-06T02:10:01.888Z,0.51
2023-03-06T02:11:02.295Z,0.51
2023-03-06T02:12:01.823Z,0.51
2023-03-06T02:13:02.282Z,0.51
2023-03-06T02:14:03.393Z,0.51
2023-03-06T02:15:02.206Z,0.49
2023-03-06T02:16:02.724Z,0.47
2023-03-06T02:17:01.528Z,0.45
2023-03-06T02:18:02.003Z,0.42
2023-03-06T02:19:01.408Z,0.39
2023-03-06T02:20:01.949Z,0.38
2023-03-06T02:21:01.400Z,0.35
2023-03-06T02:22:03.563Z,0.33
2023-03-06T02:23:03.044Z,0.29
2023-03-06T02:24:01.810Z,0.25
2023-03-06T02:25:03.969Z,0.22
2023-03-06T02:26:03.411Z,0.2
2023-03-06T02:27:03.883Z,0.18
2023-03-06T02:28:01.744Z,0.14
2023-03-06T02:29:02.228Z,0.12
2023-03-06T02:30:01.663Z,0.09
2023-03-06T02:31:03.910Z,0.06
2023-03-06T02:32:03.290Z,0.03
2023-03-06T02:33:02.134Z,0.01
2023-03-06T02:34:01.595Z,-0.01
2023-03-06T02:35:03.736Z,-0.03
2023-03-06T02:36:01.534Z,-0.06
2023-03-06T02:37:01.996Z,-0.08
2023-03-06T02:38:03.181Z,-0.09
2023-03-06T02:39:01.997Z,-0.1
2023-03-06T02:40:01.412Z,-0.12
2023-03-06T02:41:01.941Z,-0.12
2023-03-06T02:42:01.416Z,-0.13
2023-03-06T02:43:01.885Z,-0.15
2023-03-06T02:45:01.854Z,-0.2
2023-03-06T02:46:02.387Z,-0.2
2023-03-06T02:47:03.404Z,-0.22
2023-03-06T02:48:02.211Z,-0.24
2023-03-06T02:49:01.724Z,-0.26
2023-03-06T02:50:02.213Z,-0.28
2023-03-06T02:51:01.723Z,-0.29
2023-03-06T02:52:02.197Z,-0.29
2023-03-06T02:53:01.664Z,-0.31
2023-03-06T02:54:03.791Z,-0.32
2023-03-06T02:55:03.341Z,-0.34
2023-03-06T02:56:02.113Z,-0.36
2023-03-06T02:57:01.560Z,-0.38
2023-03-06T02:58:02.068Z,-0.4
2023-03-06T02:59:01.556Z,-0.4
2023-03-06T03:00:03.658Z,-0.41
2023-03-06T03:01:01.478Z,-0.42
2023-03-06T03:02:01.960Z,-0.43
2023-03-06T03:03:01.501Z,-0.44
2023-03-06T03:04:03.628Z,-0.44
2023-03-06T03:05:01.382Z,-0.45
2023-03-06T03:06:03.556Z,-0.46
2023-03-06T03:07:01.312Z,-0.46
2023-03-06T03:08:01.826Z,-0.47
2023-03-06T03:10:01.812Z,-0.53
2023-03-06T03:11:02.271Z,-0.54
2023-03-06T03:12:01.708Z,-0.54
2023-03-06T03:13:02.207Z,-0.54
2023-03-06T03:14:01.704Z,-0.55
2023-03-06T03:15:03.133Z,-0.56
2023-03-06T03:16:02.051Z,-0.56
2023-03-06T03:17:01.323Z,-0.57
2023-03-06T03:18:01.908Z,-0.56
2023-03-06T03:19:01.303Z,-0.57
2023-03-06T03:20:01.799Z,-0.58
2023-03-06T03:21:02.282Z,-0.59
2023-03-06T03:22:01.821Z,-0.6
2023-03-06T03:23:03.975Z,-0.64
2023-03-06T03:24:01.736Z,-0.64
2023-03-06T03:25:02.196Z,-0.64
2023-03-06T03:26:01.634Z,-0.64
2023-03-06T03:27:03.795Z,-0.66
2023-03-06T03:28:01.628Z,-0.66
2023-03-06T03:29:02.144Z,-0.64
2023-03-06T03:30:03.236Z,-0.61
2023-03-06T03:31:02.203Z,-0.6
2023-03-06T03:32:01.607Z,-0.59
2023-03-06T03:33:02.033Z,-0.6
2023-03-06T03:34:01.575Z,-0.59
2023-03-06T03:35:02.032Z,-0.57
2023-03-06T03:36:01.511Z,-0.58
2023-03-06T03:37:01.957Z,-0.58
2023-03-06T03:38:01.472Z,-0.61
2023-03-06T03:39:01.979Z,-0.62
2023-03-06T03:40:01.395Z,-0.61
2023-03-06T03:41:01.871Z,-0.62
2023-03-06T03:42:01.396Z,-0.61
2023-03-06T03:43:03.551Z,-0.61
2023-03-06T03:44:01.353Z,-0.61
2023-03-06T03:45:01.792Z,-0.61
2023-03-06T03:46:02.324Z,-0.61
2023-03-06T03:47:01.796Z,-0.61
2023-03-06T03:48:02.276Z,-0.62
2023-03-06T03:49:03.421Z,-0.64
2023-03-06T03:50:03.883Z,-0.64
2023-03-06T03:51:01.715Z,-0.65
2023-03-06T03:52:02.209Z,-0.66
2023-03-06T03:53:03.319Z,-0.68
2023-03-06T03:54:02.118Z,-0.69
2023-03-06T03:55:01.656Z,-0.69
2023-03-06T03:56:02.129Z,-0.68
2023-03-06T03:57:03.224Z,-0.69
2023-03-06T03:58:02.037Z,-0.7
2023-03-06T03:59:01.564Z,-0.71
2023-03-06T04:00:02.056Z,-0.72
2023-03-06T04:01:01.478Z,-0.72
2023-03-06T04:02:02.046Z,-0.71
2023-03-06T04:03:01.478Z,-0.71
2023-03-06T04:04:01.952Z,-0.7
2023-03-06T04:05:01.452Z,-0.7
2023-03-06T04:06:01.954Z,-0.69
2023-03-06T04:07:01.388Z,-0.68
2023-03-06T04:08:01.879Z,-0.67
2023-03-06T04:09:01.406Z,-0.67
2023-03-06T04:10:01.898Z,-0.67
2023-03-06T04:11:02.996Z,-0.67
2023-03-06T04:12:03.466Z,-0.66
2023-03-06T04:13:02.277Z,-0.65
2023-03-06T04:14:03.420Z,-0.64
2023-03-06T04:15:04.816Z,-0.64
2023-03-06T04:16:01.606Z,-0.64
2023-03-06T04:17:02.062Z,-0.61
2023-03-06T04:18:01.500Z,-0.6
2023-03-06T04:19:01.949Z,-0.6
2023-03-06T04:20:01.473Z,-0.59
2023-03-06T04:21:03.628Z,-0.59
2023-03-06T04:22:01.390Z,-0.58
2023-03-06T04:23:03.587Z,-0.57
2023-03-06T04:24:03.004Z,-0.56
2023-03-06T04:25:01.792Z,-0.56
2023-03-06T04:26:03.969Z,-0.54
2023-03-06T04:27:01.799Z,-0.54
2023-03-06T04:28:02.265Z,-0.53
2023-03-06T04:29:01.762Z,-0.52
2023-03-06T04:30:02.212Z,-0.53
2023-03-06T04:31:01.721Z,-0.53
2023-03-06T04:32:02.284Z,-0.52
2023-03-06T04:33:03.328Z,-0.52
2023-03-06T04:34:02.234Z,-0.51
2023-03-06T04:35:01.633Z,-0.51
2023-03-06T04:36:02.119Z,-0.51
2023-03-06T04:37:01.634Z,-0.51
2023-03-06T04:38:02.037Z,-0.5
2023-03-06T04:39:01.618Z,-0.49
2023-03-06T04:40:03.723Z,-0.49
2023-03-06T04:41:01.474Z,-0.47
2023-03-06T04:42:01.960Z,-0.47
2023-03-06T04:43:03.178Z,-0.46
2023-03-06T04:44:01.980Z,-0.46
2023-03-06T04:45:01.391Z,-0.46
2023-03-06T04:46:01.930Z,-0.45
2023-03-06T04:47:01.406Z,-0.45
2023-03-06T04:48:01.885Z,-0.45
2023-03-06T04:49:01.335Z,-0.44
2023-03-06T04:50:03.467Z,-0.45
2023-03-06T04:51:02.273Z,-0.45
2023-03-06T04:52:03.389Z,-0.44
2023-03-06T04:53:02.301Z,-0.45
2023-03-06T04:54:01.728Z,-0.45
2023-03-06T04:55:02.230Z,-0.44
2023-03-06T04:56:03.317Z,-0.43
2023-03-06T04:57:02.195Z,-0.42
2023-03-06T04:58:01.640Z,-0.4
2023-03-06T04:59:02.124Z,-0.39
2023-03-06T05:00:01.614Z,-0.38
2023-03-06T05:01:03.762Z,-0.37
2023-03-06T05:02:01.675Z,-0.36
2023-03-06T05:03:03.721Z,-0.35
2023-03-06T05:04:01.480Z,-0.34
2023-03-06T05:05:03.646Z,-0.34
2023-03-06T05:06:01.480Z,-0.31
2023-03-06T05:07:01.977Z,-0.3
2023-03-06T05:08:01.405Z,-0.3
2023-03-06T05:09:01.998Z,-0.29
2023-03-06T05:10:01.404Z,-0.28
2023-03-06T05:11:01.874Z,-0.26
2023-03-06T05:12:03.086Z,-0.25
2023-03-06T05:13:02.936Z,-0.23
2023-03-06T05:14:01.651Z,-0.22
2023-03-06T05:15:02.114Z,-0.21
2023-03-06T05:16:01.621Z,-0.19
2023-03-06T05:17:03.794Z,-0.17
2023-03-06T05:18:01.547Z,-0.17
2023-03-06T05:19:02.063Z,-0.17
2023-03-06T05:20:03.230Z,-0.17
2023-03-06T05:21:03.717Z,-0.17
2023-03-06T05:22:01.482Z,-0.19
2023-03-06T05:23:01.962Z,-0.19
2023-03-06T05:24:03.087Z,-0.2
2023-03-06T05:25:01.874Z,-0.2
2023-03-06T05:26:01.392Z,-0.2
2023-03-06T05:27:03.564Z,-0.21
2023-03-06T05:28:01.307Z,-0.22
2023-03-06T05:29:01.791Z,-0.23
2023-03-06T05:30:02.282Z,-0.25
2023-03-06T05:31:03.617Z,-0.26
2023-03-06T05:32:02.450Z,-0.27
2023-03-06T05:33:01.750Z,-0.29
2023-03-06T05:34:02.215Z,-0.3
2023-03-06T05:35:03.332Z,-0.31
2023-03-06T05:36:02.193Z,-0.32
2023-03-06T05:37:01.660Z,-0.32
2023-03-06T05:38:03.802Z,-0.32
2023-03-06T05:39:01.559Z,-0.32
2023-03-06T05:40:02.119Z,-0.32
2023-03-06T05:41:01.589Z,-0.32
2023-03-06T05:42:02.035Z,-0.34
2023-03-06T05:43:01.556Z,-0.34
2023-03-06T05:44:03.728Z,-0.35
2023-03-06T05:45:03.158Z,-0.34
2023-03-06T05:46:02.003Z,-0.34
2023-03-06T05:47:01.486Z,-0.34
2023-03-06T05:48:01.974Z,-0.32
2023-03-06T05:49:01.478Z,-0.32
2023-03-06T05:50:01.986Z,-0.32
2023-03-06T05:51:01.428Z,-0.32
2023-03-06T05:52:01.892Z,-0.34
2023-03-06T05:53:03.081Z,-0.34
2023-03-06T05:54:01.876Z,-0.32
2023-03-06T05:55:03.000Z,-0.32
2023-03-06T05:56:01.823Z,-0.31
2023-03-06T05:57:03.950Z,-0.31
2023-03-06T05:58:01.801Z,-0.32
2023-03-06T05:59:02.194Z,-0.31
2023-03-06T06:00:01.711Z,-0.31
2023-03-06T06:01:02.205Z,-0.3
2023-03-06T06:02:01.687Z,-0.29
2023-03-06T06:03:02.164Z,-0.3
2023-03-06T06:04:01.635Z,-0.29
2023-03-06T06:05:03.788Z,-0.29
2023-03-06T06:06:01.656Z,-0.27
2023-03-06T06:07:03.712Z,-0.27
2023-03-06T06:08:01.565Z,-0.26
2023-03-06T06:09:02.044Z,-0.25
2023-03-06T06:10:04.015Z,-0.23
2023-03-06T06:11:02.003Z,-0.21
2023-03-06T06:12:02.452Z,-0.19
2023-03-06T06:13:02.130Z,-0.15
2023-03-06T06:14:03.315Z,-0.12
2023-03-06T06:15:02.111Z,-0.1
2023-03-06T06:16:01.609Z,-0.09
2023-03-06T06:17:02.072Z,-0.08
2023-03-06T06:18:03.235Z,-0.07
2023-03-06T06:19:02.044Z,-0.05
2023-03-06T06:20:01.476Z,-0.02
2023-03-06T06:21:01.968Z,-0.01
2023-03-06T06:22:03.173Z,0.02
2023-03-06T06:23:01.961Z,0.04
2023-03-06T06:24:01.390Z,0.06
2023-03-06T06:25:03.552Z,0.08
2023-03-06T06:26:01.392Z,0.1
2023-03-06T06:27:03.857Z,0.13
2023-03-06T06:28:01.338Z,0.14
2023-03-06T06:29:03.476Z,0.15
2023-03-06T06:30:03.950Z,0.16
2023-03-06T06:31:01.825Z,0.16
2023-03-06T06:32:02.349Z,0.16
2023-03-06T06:33:01.747Z,0.16
2023-03-06T06:34:02.202Z,0.16
2023-03-06T06:35:01.729Z,0.16
2023-03-06T06:36:02.204Z,0.16
2023-03-06T06:37:01.644Z,0.15
2023-03-06T06:38:03.818Z,0.16
2023-03-06T06:39:01.566Z,0.15
2023-03-06T06:40:03.831Z,0.16
2023-03-06T06:41:33.457Z,0.16
2023-03-06T06:42:26.148Z,0.17
2023-03-06T06:43:01.495Z,0.18
2023-03-06T06:44:01.963Z,0.18
2023-03-06T06:45:01.512Z,0.18
2023-03-06T06:46:24.561Z,0.18
2023-03-06T06:47:22.320Z,0.18
2023-03-06T06:48:01.945Z,0.19
2023-03-06T06:49:01.427Z,0.18
2023-03-06T06:50:01.901Z,0.18
2023-03-06T06:51:01.324Z,0.19
2023-03-06T06:52:01.793Z,0.19
2023-03-06T06:53:02.274Z,0.21
2023-03-06T06:54:03.469Z,0.22
2023-03-06T06:55:02.290Z,0.22
2023-03-06T06:56:01.712Z,0.24
2023-03-06T06:57:02.191Z,0.25
2023-03-06T06:58:03.393Z,0.28
2023-03-06T06:59:15.748Z,0.3
2023-03-06T07:00:01.663Z,0.31
2023-03-06T07:01:02.116Z,0.33
2023-03-06T07:02:03.311Z,0.35
2023-03-06T07:03:02.115Z,0.36
2023-03-06T07:04:01.611Z,0.38
2023-03-06T07:05:05.332Z,0.39
2023-03-06T07:06:01.548Z,0.4
2023-03-06T07:07:02.028Z,0.43
2023-03-06T07:08:01.476Z,0.44
2023-03-06T07:09:03.633Z,0.47
2023-03-06T07:10:01.484Z,0.48
2023-03-06T07:11:02.038Z,0.5
2023-03-06T07:12:03.144Z,0.51
2023-03-06T07:13:01.972Z,0.52
2023-03-06T07:14:01.476Z,0.53
2023-03-06T07:15:03.565Z,0.54
2023-03-06T07:16:01.436Z,0.55
2023-03-06T07:17:03.575Z,0.57
2023-03-06T07:18:03.019Z,0.57
2023-03-06T07:19:01.795Z,0.59
2023-03-06T07:21:01.793Z,0.61
2023-03-06T07:22:02.276Z,0.62
2023-03-06T07:23:01.731Z,0.63
2023-03-06T07:24:03.909Z,0.64
2023-03-06T07:25:01.718Z,0.65
2023-03-06T07:26:02.192Z,0.67
2023-03-06T07:27:01.635Z,0.69
2023-03-06T07:28:02.198Z,0.72
2023-03-06T07:29:01.638Z,0.72
2023-03-06T07:30:02.117Z,0.74
2023-03-06T07:31:01.812Z,0.77
2023-03-06T07:32:02.286Z,0.8
2023-03-06T07:33:01.555Z,0.82
2023-03-06T07:34:04.785Z,0.84
2023-03-06T07:35:19.032Z,0.86
2023-03-06T07:36:02.094Z,0.88
2023-03-06T07:37:01.473Z,0.9
2023-03-06T07:38:01.953Z,0.91
2023-03-06T07:39:01.403Z,0.95
2023-03-06T07:40:01.894Z,0.97
2023-03-06T07:41:01.401Z,0.99
2023-03-06T07:42:01.879Z,1.01
2023-03-06T07:43:13.211Z,1.04
2023-03-06T07:44:01.890Z,1.05
2023-03-06T07:46:03.508Z,1.08
2023-03-06T07:47:02.273Z,1.11
2023-03-06T07:48:05.576Z,1.14
2023-03-06T07:49:02.270Z,1.17
2023-03-06T07:50:01.721Z,1.19
2023-03-06T07:51:02.212Z,1.21
2023-03-06T07:52:01.750Z,1.23
2023-03-06T07:53:02.216Z,1.26
2023-03-06T07:54:01.649Z,1.27
2023-03-06T07:55:02.140Z,1.27
2023-03-06T07:56:01.578Z,1.29
2023-03-06T07:57:03.718Z,1.31
2023-03-06T07:58:01.586Z,1.32
2023-03-06T07:59:02.062Z,1.34
2023-03-06T08:00:01.500Z,1.34
2023-03-06T08:01:01.959Z,1.35
2023-03-06T08:02:01.491Z,1.36
2023-03-06T08:03:03.791Z,1.38
2023-03-06T08:04:03.144Z,1.4
2023-03-06T08:05:01.893Z,1.42
2023-03-06T08:06:01.409Z,1.45
2023-03-06T08:07:01.886Z,1.47
2023-03-06T08:08:01.330Z,1.5
2023-03-06T08:09:03.507Z,1.51
2023-03-06T08:10:02.295Z,1.56
2023-03-06T08:11:01.735Z,1.6
2023-03-06T08:12:02.220Z,1.64
2023-03-06T08:13:01.734Z,1.69
2023-03-06T08:14:02.211Z,1.73
2023-03-06T08:15:01.684Z,1.76
2023-03-06T08:16:03.860Z,1.77
2023-03-06T08:17:01.655Z,1.78
2023-03-06T08:18:03.734Z,1.81
2023-03-06T08:19:01.567Z,1.8
2023-03-06T08:20:02.061Z,1.81
2023-03-06T08:21:01.551Z,1.85
2023-03-06T08:22:02.057Z,1.88
2023-03-06T08:23:03.158Z,1.92
2023-03-06T08:24:01.951Z,1.94
2023-03-06T08:25:01.517Z,1.95
2023-03-06T08:26:01.960Z,2
2023-03-06T08:27:01.412Z,2.05
2023-03-06T08:28:01.894Z,2.08
2023-03-06T08:29:01.416Z,2.1
2023-03-06T08:30:03.556Z,2.12
2023-03-06T08:31:02.999Z,2.17
2023-03-06T08:32:01.848Z,2.21
2023-03-06T08:34:01.807Z,2.22
2023-03-06T08:35:02.279Z,2.24
2023-03-06T08:36:02.469Z,2.23
2023-03-06T08:37:02.296Z,2.25
2023-03-06T08:38:01.719Z,2.26
2023-03-06T08:39:03.886Z,2.3
2023-03-06T08:40:03.331Z,2.32
2023-03-06T08:41:02.153Z,2.36
2023-03-06T08:42:01.650Z,2.32
2023-03-06T08:43:02.135Z,2.32
2023-03-06T08:44:01.682Z,2.34
2023-03-06T08:45:02.136Z,2.31
2023-03-06T08:46:01.612Z,2.31
2023-03-06T08:47:02.041Z,2.32
2023-03-06T08:48:01.574Z,2.3
2023-03-06T08:49:02.069Z,2.29
2023-03-06T08:50:01.518Z,2.29
2023-03-06T08:51:01.984Z,2.28
2023-03-06T08:52:03.162Z,2.31
2023-03-06T08:53:01.961Z,2.29
2023-03-06T08:54:01.437Z,2.29
2023-03-06T08:55:03.680Z,2.29
2023-03-06T08:56:03.132Z,2.27
2023-03-06T08:57:01.918Z,2.3
2023-03-06T08:58:01.321Z,2.3
2023-03-06T08:59:01.809Z,2.31
2023-03-06T09:00:03.965Z,2.31
2023-03-06T09:01:01.925Z,2.31
2023-03-06T09:02:02.291Z,2.34
2023-03-06T09:03:03.394Z,2.37
2023-03-06T09:04:02.207Z,2.41
2023-03-06T09:05:01.641Z,2.45
2023-03-06T09:06:03.796Z,2.43
2023-03-06T09:07:01.649Z,2.43
2023-03-06T09:08:02.149Z,2.44
2023-03-06T09:09:01.642Z,2.43
2023-03-06T09:10:02.111Z,2.41
2023-03-06T09:11:01.561Z,2.45
2023-03-06T09:12:02.034Z,2.52
2023-03-06T09:13:01.502Z,2.56
2023-03-06T09:14:01.969Z,2.57
2023-03-06T09:15:03.146Z,2.61
2023-03-06T09:16:01.958Z,2.7
2023-03-06T09:17:01.404Z,2.78
2023-03-06T09:18:01.944Z,2.86
2023-03-06T09:19:01.414Z,3.01
2023-03-06T09:20:01.865Z,3.13
2023-03-06T09:21:02.989Z,3.14
2023-03-06T09:22:01.792Z,3.14
2023-03-06T09:23:03.959Z,3.16
2023-03-06T09:24:01.807Z,3.21
2023-03-06T09:25:02.275Z,3.29
2023-03-06T09:26:01.735Z,3.32
2023-03-06T09:27:02.188Z,3.3
2023-03-06T09:28:10.560Z,3.24
2023-03-06T09:29:02.240Z,3.2
2023-03-06T09:30:03.302Z,3.2
2023-03-06T09:31:02.170Z,3.2
2023-03-06T09:32:03.344Z,3.17
2023-03-06T09:33:02.110Z,3.16
2023-03-06T09:34:01.567Z,3.17
2023-03-06T09:35:02.044Z,3.16
2023-03-06T09:36:01.550Z,3.15
2023-03-06T09:37:03.778Z,3.15
2023-03-06T09:38:01.492Z,3.16
2023-03-06T09:39:01.957Z,3.16
2023-03-06T09:40:01.510Z,3.16
2023-03-06T09:41:01.976Z,3.15
2023-03-06T09:42:03.405Z,3.16
2023-03-06T09:43:03.642Z,3.19
2023-03-06T09:44:01.491Z,3.23
2023-03-06T09:45:01.951Z,3.25
2023-03-06T09:46:01.478Z,3.28
2023-03-06T09:47:01.881Z,3.32
2023-03-06T09:48:03.113Z,3.39
2023-03-06T09:49:01.887Z,3.47
2023-03-06T09:50:01.314Z,3.53
2023-03-06T09:51:01.801Z,3.6
2023-03-06T09:52:02.276Z,3.61
2023-03-06T09:53:03.494Z,3.58
2023-03-06T09:54:02.305Z,3.59
2023-03-06T09:55:01.743Z,3.59
2023-03-06T09:56:02.233Z,3.53
2023-03-06T09:57:01.748Z,3.5
2023-03-06T09:58:02.238Z,3.48
2023-03-06T09:59:03.424Z,3.5
2023-03-06T10:00:04.452Z,3.5
2023-03-06T10:01:03.313Z,3.48
2023-03-06T10:02:02.193Z,3.48
2023-03-06T10:03:01.761Z,3.47
2023-03-06T10:04:02.035Z,3.43
2023-03-06T10:05:01.644Z,3.36
2023-03-06T10:06:03.714Z,3.34
2023-03-06T10:07:04.088Z,3.38
2023-03-06T10:08:01.820Z,3.36
2023-03-06T10:09:02.280Z,3.38
2023-03-06T10:10:03.497Z,3.36
2023-03-06T10:11:02.271Z,3.34
2023-03-06T10:12:01.721Z,3.33
2023-03-06T10:13:02.234Z,3.34
2023-03-06T10:14:01.739Z,3.39
2023-03-06T10:15:02.218Z,3.42
2023-03-06T10:16:01.699Z,3.46
2023-03-06T10:17:02.114Z,3.48
2023-03-06T10:18:03.350Z,3.5
2023-03-06T10:19:03.797Z,3.54
2023-03-06T10:20:01.565Z,3.54
2023-03-06T10:21:13.589Z,3.55
2023-03-06T10:22:01.470Z,3.56
2023-03-06T10:23:05.118Z,3.58
2023-03-06T10:24:01.535Z,3.61
2023-03-06T10:25:01.954Z,3.63
2023-03-06T10:26:01.563Z,3.64
2023-03-06T10:27:02.013Z,3.69
2023-03-06T10:28:01.395Z,3.75
2023-03-06T10:29:01.900Z,3.8
2023-03-06T10:30:03.968Z,3.88
2023-03-06T10:31:01.964Z,3.91
2023-03-06T10:32:03.013Z,3.88
2023-03-06T10:33:03.569Z,3.83
2023-03-06T10:34:02.283Z,3.79
2023-03-06T10:35:01.819Z,3.76
2023-03-06T10:36:02.353Z,3.72
2023-03-06T10:37:01.760Z,3.68
2023-03-06T10:38:02.187Z,3.69
2023-03-06T10:39:01.749Z,3.67
2023-03-06T10:40:03.927Z,3.62
2023-03-06T10:41:01.633Z,3.59
2023-03-06T10:42:02.122Z,3.57
2023-03-06T10:43:10.912Z,3.56
2023-03-06T10:44:02.122Z,3.54
2023-03-06T10:45:01.568Z,3.53
2023-03-06T10:46:02.158Z,3.48
2023-03-06T10:47:01.563Z,3.48
2023-03-06T10:48:02.029Z,3.54
2023-03-06T10:49:01.583Z,3.56
2023-03-06T10:50:03.657Z,3.58
2023-03-06T10:51:09.798Z,3.58
2023-03-06T10:52:01.950Z,3.6
2023-03-06T10:53:01.481Z,3.6
2023-03-06T10:54:03.673Z,3.6
2023-03-06T10:55:01.424Z,3.58
2023-03-06T10:56:01.914Z,3.62
2023-03-06T10:57:01.438Z,3.65
2023-03-06T10:58:01.900Z,3.74
2023-03-06T10:59:03.013Z,3.82
2023-03-06T11:00:01.806Z,3.92
2023-03-06T11:01:03.964Z,3.94
2023-03-06T11:02:01.933Z,3.92
2023-03-06T11:03:02.296Z,3.95
2023-03-06T11:04:01.722Z,4.04
2023-03-06T11:05:02.362Z,4.09
2023-03-06T11:06:01.730Z,4.09
2023-03-06T11:07:02.206Z,4.07
2023-03-06T11:08:01.689Z,4.02
2023-03-06T11:09:02.122Z,4.01
2023-03-06T11:10:03.247Z,3.93
2023-03-06T11:11:02.123Z,3.82
2023-03-06T11:12:01.564Z,3.71
2023-03-06T11:13:02.063Z,3.63
2023-03-06T11:14:01.486Z,3.55
2023-03-06T11:15:02.145Z,3.47
2023-03-06T11:16:01.535Z,3.43
2023-03-06T11:17:03.644Z,3.35
2023-03-06T11:18:01.501Z,3.31
2023-03-06T11:19:01.974Z,3.28
2023-03-06T11:20:01.404Z,3.25
2023-03-06T11:21:01.875Z,3.21
2023-03-06T11:22:03.075Z,3.24
2023-03-06T11:23:01.806Z,3.32
2023-03-06T11:24:02.325Z,3.44
2023-03-06T11:25:03.477Z,3.57
2023-03-06T11:26:02.297Z,3.67
2023-03-06T11:27:03.397Z,3.77
2023-03-06T11:28:02.199Z,3.79
2023-03-06T11:29:01.766Z,3.82
2023-03-06T11:30:03.866Z,3.83
2023-03-06T11:31:03.399Z,3.78
2023-03-06T11:32:02.157Z,3.73
2023-03-06T11:33:01.575Z,3.73
2023-03-06T11:34:03.722Z,3.69
2023-03-06T11:35:01.690Z,3.64
2023-03-06T11:36:02.052Z,3.55
2023-03-06T11:37:01.478Z,3.47
2023-03-06T11:38:03.642Z,3.35
2023-03-06T11:39:03.146Z,3.33
2023-03-06T11:40:01.964Z,3.4
2023-03-06T11:41:01.391Z,3.47
2023-03-06T11:42:01.874Z,3.53
2023-03-06T11:43:01.399Z,3.57
2023-03-06T11:44:01.899Z,3.64
2023-03-06T11:45:02.842Z,3.72
2023-03-06T11:46:01.885Z,3.75
2023-03-06T11:48:01.816Z,3.78
2023-03-06T11:49:02.288Z,3.77
2023-03-06T11:50:03.460Z,3.84
2023-03-06T11:51:02.282Z,3.93
2023-03-06T11:52:01.754Z,4.01
2023-03-06T11:53:02.189Z,4.09
2023-03-06T11:54:01.729Z,4.12
2023-03-06T11:55:02.310Z,4.07
2023-03-06T11:56:01.639Z,4.06
2023-03-06T11:57:02.176Z,4.07
2023-03-06T11:58:01.552Z,4.03
2023-03-06T11:59:02.045Z,3.95
2023-03-06T12:00:01.561Z,3.97
2023-03-06T12:01:02.037Z,4.02
2023-03-06T12:02:03.200Z,4.01
2023-03-06T12:03:01.955Z,3.99
2023-03-06T12:04:01.477Z,4
2023-03-06T12:05:03.629Z,3.98
2023-03-06T12:06:01.460Z,3.97
2023-03-06T12:07:04.625Z,4.06
2023-03-06T12:08:01.335Z,4.16
2023-03-06T12:09:01.901Z,4.16
2023-03-06T12:11:01.826Z,4.22
2023-03-06T12:12:02.278Z,4.23
2023-03-06T12:13:01.723Z,4.22
2023-03-06T12:14:04.319Z,4.13
2023-03-06T12:15:01.818Z,4.04
2023-03-06T12:16:03.940Z,3.97
2023-03-06T12:17:03.390Z,3.9
2023-03-06T12:18:02.226Z,3.8
2023-03-06T12:19:01.655Z,3.75
2023-03-06T12:20:03.812Z,3.75
2023-03-06T12:21:01.552Z,3.74
2023-03-06T12:22:02.053Z,3.74
2023-03-06T12:23:14.938Z,3.78
2023-03-06T12:24:02.038Z,3.8
2023-03-06T12:25:01.824Z,3.82
2023-03-06T12:26:02.104Z,3.87
2023-03-06T12:27:01.539Z,3.9
2023-03-06T12:28:03.630Z,3.94
2023-03-06T12:29:01.493Z,4.01
2023-03-06T12:30:01.971Z,4.07
2023-03-06T12:31:01.393Z,4.1
2023-03-06T12:32:01.999Z,4.14
2023-03-06T12:33:01.314Z,4.15
2023-03-06T12:34:01.922Z,4.17
2023-03-06T12:35:04.724Z,4.19
2023-03-06T12:36:03.462Z,4.19
2023-03-06T12:37:02.316Z,4.23
2023-03-06T12:38:01.795Z,4.28
2023-03-06T12:39:02.306Z,4.32
2023-03-06T12:40:01.716Z,4.32
2023-03-06T12:41:02.200Z,4.33
2023-03-06T12:42:04.867Z,4.35
2023-03-06T12:43:02.215Z,4.35
2023-03-06T12:44:01.648Z,4.39
2023-03-06T12:45:02.125Z,4.44
2023-03-06T12:46:01.664Z,4.43
2023-03-06T12:47:02.116Z,4.41
2023-03-06T12:48:01.550Z,4.38
2023-03-06T12:49:02.025Z,4.36
2023-03-06T12:50:01.585Z,4.37
2023-03-06T12:51:02.037Z,4.43
2023-03-06T12:52:03.153Z,4.48
2023-03-06T12:53:01.967Z,4.53
2023-03-06T12:54:01.408Z,4.59
2023-03-06T12:55:01.901Z,4.64
2023-03-06T12:56:01.328Z,4.66
2023-03-06T12:57:03.551Z,4.68
2023-03-06T12:59:01.795Z,4.68
2023-03-06T13:00:02.288Z,4.72
2023-03-06T13:01:04.730Z,4.75
2023-03-06T13:02:04.017Z,4.72
2023-03-06T13:03:01.746Z,4.69
2023-03-06T13:04:02.212Z,4.67
2023-03-06T13:05:02.714Z,4.65
2023-03-06T13:06:01.321Z,4.65
2023-03-06T13:07:03.503Z,4.64
2023-03-06T13:08:02.280Z,4.63
2023-03-06T13:09:01.795Z,4.54
2023-03-06T13:10:03.892Z,4.46
2023-03-06T13:11:01.731Z,4.43
2023-03-06T13:12:03.902Z,4.39
2023-03-06T13:13:01.752Z,4.37
2023-03-06T13:14:02.215Z,4.36
2023-03-06T13:15:01.640Z,4.34
2023-03-06T13:16:02.121Z,4.3
2023-03-06T13:17:01.648Z,4.26
2023-03-06T13:18:02.151Z,4.23
2023-03-06T13:19:01.571Z,4.21
2023-03-06T13:20:02.043Z,4.19
2023-03-06T13:21:03.149Z,4.17
2023-03-06T13:22:01.957Z,4.18
2023-03-06T13:23:01.500Z,4.2
2023-03-06T13:24:01.980Z,4.19
2023-03-06T13:25:08.169Z,4.16